Terminal Aerodrome Forecast
Issued by NWS Sterling, VA

Current Version | Previous Version | Graphics & Text | Print | Product List | Glossary On
Versions: 1 2 3 4 5 6 7 8 9 10 11 12 13 14 15 16 17 18 19 20 21 22 23 24 25 26 27
000
FTUS41 KLWX 292056 AAA
TAFIAD
TAF AMD
KIAD 292056Z 2921/3024 16005KT P6SM OVC100
     FM292200 16005KT P6SM -SHRA OVC070
     FM300500 VRB03KT 5SM SHRA BR OVC010
     FM301000 VRB03KT 3SM BR OVC008
     FM301600 32004KT 5SM BR BKN030
     FM301900 31004KT 3SM BR BKN035
     FM302000 23004KT 3SM BR BKN050
     FM302200 18004KT 5SM BR BKN080=

USA.gov is the U.S. government's official web portal to all federal, state and local government web resources and services.